Time;durP1;ratioP1;P1;durP2;ratioP2;P2;SDS_P1;SDS_P2;PMS_P1;PMS_P2;Temp;Humidity;BMP_temperature;BMP_pressure;BME280_temperature;BME280_humidity;BME280_pressure;Samples;Min_cycle;Max_cycle;Signal;HPM_P1;HPM_P2
2022/11/30 00:00:31;;;;;;;34.90;21.90;;;;;;;10.63;64.73;97699.56;5022688;28;20422;-70
2022/11/30 00:02:57;;;;;;;36.90;22.17;;;;;;;10.58;64.69;97696.53;5033521;28;20172;-70
2022/11/30 00:05:22;;;;;;;34.70;21.00;;;;;;;10.58;65.09;97697.38;5042807;28;20207;-69
2022/11/30 00:07:48;;;;;;;34.90;21.53;;;;;;;10.61;65.16;97691.00;5035984;28;20421;-68
2022/11/30 00:10:14;;;;;;;36.10;21.30;;;;;;;10.63;65.00;97696.94;5019767;28;20192;-68
2022/11/30 00:12:42;;;;;;;35.77;22.27;;;;;;;10.65;64.91;97691.53;5030734;28;20737;-68
2022/11/30 00:15:13;;;;;;;39.57;23.90;;;;;;;10.70;64.81;97699.81;5020330;28;20208;-68
2022/11/30 00:17:45;;;;;;;34.57;21.93;;;;;;;10.67;64.78;97692.25;5031577;28;20513;-68
2022/11/30 00:20:13;;;;;;;34.67;22.00;;;;;;;10.70;64.71;97686.72;5033419;28;20428;-68
2022/11/30 00:22:38;;;;;;;36.77;22.57;;;;;;;10.68;64.77;97689.47;5033054;28;20928;-69
2022/11/30 00:25:04;;;;;;;36.20;23.03;;;;;;;10.67;64.49;97690.44;5039938;28;20514;-69
2022/11/30 00:27:30;;;;;;;40.07;23.70;;;;;;;10.66;64.53;97695.81;5031377;28;20183;-71
2022/11/30 00:29:56;;;;;;;37.23;23.47;;;;;;;10.65;64.56;97689.75;5029772;28;20191;-70
2022/11/30 00:32:22;;;;;;;37.43;23.10;;;;;;;10.67;64.46;97695.66;5043872;28;20461;-70
2022/11/30 00:34:47;;;;;;;39.93;25.90;;;;;;;10.68;64.38;97692.09;5036022;28;20504;-70
2022/11/30 00:37:13;;;;;;;38.53;23.60;;;;;;;10.69;64.30;97691.13;5036624;28;20195;-67
2022/11/30 00:39:39;;;;;;;36.00;23.07;;;;;;;10.69;64.07;97688.50;5028446;28;20667;-67
2022/11/30 00:42:04;;;;;;;36.57;23.93;;;;;;;10.69;64.00;97685.88;5021602;28;20436;-70
2022/11/30 00:44:30;;;;;;;37.77;23.60;;;;;;;10.71;64.13;97683.94;5036682;28;20587;-69
2022/11/30 00:46:55;;;;;;;39.40;24.07;;;;;;;10.64;63.93;97687.25;5029249;28;20223;-69
2022/11/30 00:49:21;;;;;;;35.07;23.17;;;;;;;10.64;64.43;97689.88;5036653;28;20715;-69
2022/11/30 00:51:46;;;;;;;36.90;22.63;;;;;;;10.59;64.64;97691.13;5019415;28;20685;-69
2022/11/30 00:54:11;;;;;;;40.77;23.10;;;;;;;10.65;64.35;97688.91;5027887;28;20283;-70
2022/11/30 00:56:37;;;;;;;31.40;21.90;;;;;;;10.63;64.69;97690.84;5023490;28;20204;-69
2022/11/30 00:59:02;;;;;;;43.03;23.83;;;;;;;10.69;64.20;97691.13;5020735;28;20262;-69
2022/11/30 01:01:28;;;;;;;39.47;22.70;;;;;;;10.67;64.15;97692.25;5031396;28;20313;-69
2022/11/30 01:03:53;;;;;;;37.63;23.40;;;;;;;10.63;64.20;97694.31;5024015;28;20184;-69
2022/11/30 01:06:19;;;;;;;37.90;22.90;;;;;;;10.64;64.28;97689.88;5030903;28;20184;-71
2022/11/30 01:08:44;;;;;;;35.80;23.47;;;;;;;10.68;63.97;97696.50;5026379;28;20172;-69
2022/11/30 01:11:14;;;;;;;39.23;23.57;;;;;;;10.67;64.17;97695.66;5014758;28;20575;-69
2022/11/30 01:13:40;;;;;;;35.40;22.53;;;;;;;10.69;64.18;97695.53;5033041;28;20255;-70
2022/11/30 01:16:08;;;;;;;33.33;22.43;;;;;;;10.71;64.04;97698.84;5020674;28;20946;-69
2022/11/30 01:18:36;;;;;;;38.50;22.60;;;;;;;10.68;64.04;97692.09;5041754;28;20422;-69
2022/11/30 01:21:05;;;;;;;38.77;21.83;;;;;;;10.64;64.21;97697.75;5022562;28;20578;-70
2022/11/30 01:23:30;;;;;;;35.30;22.47;;;;;;;10.61;64.20;97696.25;5045648;28;20516;-70
2022/11/30 01:25:56;;;;;;;32.33;22.50;;;;;;;10.66;64.46;97708.94;5044816;28;20583;-70
2022/11/30 01:28:22;;;;;;;35.57;21.60;;;;;;;10.64;64.40;97703.84;5039714;28;20184;-70
2022/11/30 01:31:02;;;;;;;37.30;23.27;;;;;;;10.62;64.30;97710.16;5038503;28;20424;-71
2022/11/30 01:33:27;;;;;;;32.10;20.07;;;;;;;10.62;64.23;97711.00;5043069;28;20344;-70
2022/11/30 01:36:05;;;;;;;34.50;22.00;;;;;;;10.66;64.41;97714.16;5039142;28;20445;-70
2022/11/30 01:38:37;;;;;;;29.90;19.47;;;;;;;10.66;64.29;97712.38;5033465;28;20186;-69
2022/11/30 01:41:03;;;;;;;30.67;20.47;;;;;;;10.63;64.10;97717.91;5032440;28;20438;-69
2022/11/30 01:43:53;;;;;;;31.47;20.67;;;;;;;10.58;64.28;97715.72;5030010;28;20414;-69
2022/11/30 01:46:30;;;;;;;29.47;20.57;;;;;;;10.57;64.38;97724.53;5035556;28;21004;-70
2022/11/30 01:48:59;;;;;;;30.10;20.13;;;;;;;10.59;64.22;97717.34;5028882;28;20785;-70
2022/11/30 01:51:27;;;;;;;29.60;19.60;;;;;;;10.63;64.09;97717.06;5035178;28;20457;-70
2022/11/30 01:53:52;;;;;;;34.07;21.20;;;;;;;10.53;64.54;97709.22;5021890;28;20423;-71
2022/11/30 01:56:18;;;;;;;33.67;20.23;;;;;;;10.58;64.65;97718.34;5033148;28;20788;-70
2022/11/30 01:58:43;;;;;;;35.87;21.50;;;;;;;10.54;64.26;97708.25;5026010;28;20656;-69
2022/11/30 02:01:09;;;;;;;32.67;21.47;;;;;;;10.52;64.45;97711.00;5030296;28;20509;-69
2022/11/30 02:03:40;;;;;;;34.43;20.53;;;;;;;10.50;64.83;97709.50;5032252;28;20662;-69
2022/11/30 02:06:07;;;;;;;31.77;19.87;;;;;;;10.51;64.92;97714.59;5027809;28;20203;-69
2022/11/30 02:08:33;;;;;;;29.30;20.30;;;;;;;10.59;64.56;97717.34;5034482;28;20429;-69
2022/11/30 02:11:02;;;;;;;29.03;20.13;;;;;;;10.56;64.54;97716.78;5015393;28;20835;-70
2022/11/30 02:13:37;;;;;;;29.40;20.17;;;;;;;10.59;64.51;97716.53;5043526;28;20497;-69
2022/11/30 02:16:19;;;;;;;30.63;20.77;;;;;;;10.52;64.63;97718.88;5017482;28;20450;-69
2022/11/30 02:18:54;;;;;;;31.97;20.33;;;;;;;10.51;64.69;97716.41;5009103;28;20521;-70
2022/11/30 02:21:31;;;;;;;31.43;19.43;;;;;;;10.49;64.75;97721.78;5025610;28;20413;-69
2022/11/30 02:24:22;;;;;;;29.63;19.77;;;;;;;10.53;64.63;97712.66;5042480;28;20414;-68
2022/11/30 02:27:02;;;;;;;28.23;18.90;;;;;;;10.56;64.75;97716.78;5037929;28;20830;-69
2022/11/30 02:29:33;;;;;;;33.00;20.20;;;;;;;10.57;64.28;97724.53;5037700;28;20422;-69
2022/11/30 02:32:13;;;;;;;30.60;19.00;;;;;;;10.52;64.25;97721.50;5044118;28;20496;-69
2022/11/30 02:34:40;;;;;;;30.10;18.80;;;;;;;10.57;64.48;97721.06;5016830;28;20434;-70
2022/11/30 02:37:07;;;;;;;29.80;18.53;;;;;;;10.58;64.31;97713.09;5033516;28;20440;-69
2022/11/30 02:39:32;;;;;;;27.33;18.40;;;;;;;10.61;64.29;97711.97;5038177;28;20948;-69
2022/11/30 02:41:58;;;;;;;27.03;19.13;;;;;;;10.63;64.00;97711.81;5024998;28;20427;-69
2022/11/30 02:44:24;;;;;;;29.07;19.37;;;;;;;10.58;64.23;97722.72;5030330;28;20789;-69
2022/11/30 02:46:51;;;;;;;31.27;19.67;;;;;;;10.52;64.25;97713.63;5048367;28;20184;-69
2022/11/30 02:49:29;;;;;;;29.30;18.90;;;;;;;10.45;64.85;97715.16;5041251;28;20421;-69
2022/11/30 02:51:55;;;;;;;33.63;18.70;;;;;;;10.49;64.48;97721.78;5038924;28;21048;-69
2022/11/30 02:54:20;;;;;;;28.20;19.00;;;;;;;10.43;64.87;97711.84;5022793;28;20539;-69
2022/11/30 02:56:46;;;;;;;26.03;18.37;;;;;;;10.48;64.82;97720.09;5029357;28;20175;-69
2022/11/30 02:59:11;;;;;;;29.73;18.97;;;;;;;10.54;64.65;97716.94;5024164;28;20177;-70
2022/11/30 03:01:38;;;;;;;27.30;17.53;;;;;;;10.58;64.51;97720.09;5040036;28;20228;-69
2022/11/30 03:04:03;;;;;;;27.40;18.30;;;;;;;10.60;64.45;97719.00;5022854;28;20843;-70
2022/11/30 03:06:29;;;;;;;26.07;16.83;;;;;;;10.60;64.30;97715.56;5037290;28;20457;-69
2022/11/30 03:08:54;;;;;;;24.73;16.90;;;;;;;10.57;64.23;97719.28;5040910;28;20266;-69
2022/11/30 03:11:20;;;;;;;25.03;16.87;;;;;;;10.55;64.38;97715.13;5046359;28;20601;-69
2022/11/30 03:13:45;;;;;;;25.93;17.13;;;;;;;10.57;64.30;97721.91;5038699;28;20180;-69
2022/11/30 03:16:11;;;;;;;21.83;15.70;;;;;;;10.54;64.55;97723.97;5035202;28;20341;-69
2022/11/30 03:18:39;;;;;;;21.83;15.60;;;;;;;10.52;64.55;97726.75;5041907;28;20254;-68
2022/11/30 03:21:09;;;;;;;24.93;16.60;;;;;;;10.53;64.32;97732.78;5032907;28;20425;-69
2022/11/30 03:23:35;;;;;;;24.33;16.30;;;;;;;10.51;64.52;97729.50;5040793;28;20500;-69
2022/11/30 03:26:01;;;;;;;24.90;16.33;;;;;;;10.53;64.55;97732.78;5040435;28;20575;-70
2022/11/30 03:28:27;;;;;;;24.43;16.90;;;;;;;10.57;64.67;97736.81;5033704;28;20265;-68
2022/11/30 03:30:52;;;;;;;22.17;15.97;;;;;;;10.60;64.51;97733.91;5040367;28;20482;-68
2022/11/30 03:33:18;;;;;;;25.20;16.97;;;;;;;10.63;64.37;97738.03;5031750;28;20220;-68
2022/11/30 03:35:44;;;;;;;23.90;16.50;;;;;;;10.62;64.37;97739.84;5038840;28;20274;-67
2022/11/30 03:38:10;;;;;;;25.17;15.83;;;;;;;10.59;64.53;97735.69;5030456;28;20869;-69
2022/11/30 03:40:36;;;;;;;22.60;15.67;;;;;;;10.61;64.56;97732.94;5027591;28;20187;-68
2022/11/30 03:43:01;;;;;;;28.00;16.60;;;;;;;10.67;64.83;97734.19;5038898;28;20665;-69
2022/11/30 03:45:27;;;;;;;24.20;15.97;;;;;;;10.66;64.03;97735.16;5032605;28;20445;-69
2022/11/30 03:47:52;;;;;;;22.97;16.57;;;;;;;10.63;64.38;97738.88;5042026;28;20232;-68
2022/11/30 03:50:17;;;;;;;27.67;16.70;;;;;;;10.68;64.36;97735.84;5034802;28;20176;-68
2022/11/30 03:52:43;;;;;;;25.03;16.87;;;;;;;10.70;64.00;97733.91;5042689;28;20203;-68
2022/11/30 03:55:09;;;;;;;23.77;15.53;;;;;;;10.69;63.98;97738.31;5033651;28;20241;-68
2022/11/30 03:57:34;;;;;;;21.30;15.60;;;;;;;10.70;64.01;97739.97;5029879;28;20178;-69
2022/11/30 04:00:00;;;;;;;20.43;14.80;;;;;;;10.72;63.97;97735.41;5034833;28;20201;-68
2022/11/30 04:02:25;;;;;;;22.23;14.90;;;;;;;10.66;64.11;97737.75;5027684;28;20170;-68
2022/11/30 04:04:51;;;;;;;21.80;15.23;;;;;;;10.66;64.33;97733.34;5037604;28;20545;-69
2022/11/30 04:07:16;;;;;;;18.80;14.43;;;;;;;10.65;64.52;97734.28;5024955;28;20183;-69
2022/11/30 04:09:42;;;;;;;20.80;14.67;;;;;;;10.65;63.91;97736.09;5035678;28;20175;-68
2022/11/30 04:12:07;;;;;;;19.03;14.27;;;;;;;10.63;64.41;97728.41;5028912;28;20192;-70
2022/11/30 04:14:33;;;;;;;19.73;14.17;;;;;;;10.56;64.02;97740.38;5027218;28;20289;-69
2022/11/30 04:16:58;;;;;;;20.50;13.50;;;;;;;10.63;64.50;97735.41;5042906;28;20183;-69
2022/11/30 04:19:24;;;;;;;18.30;12.90;;;;;;;10.52;64.37;97734.59;5038352;28;20269;-69
2022/11/30 04:21:50;;;;;;;21.57;14.23;;;;;;;10.51;64.53;97740.81;5040782;28;20405;-68
2022/11/30 04:24:15;;;;;;;18.27;12.77;;;;;;;10.54;64.58;97737.91;5035059;28;20711;-69
2022/11/30 04:26:41;;;;;;;16.90;13.27;;;;;;;10.59;64.64;97738.31;5030459;28;20442;-69
2022/11/30 04:29:06;;;;;;;19.60;13.30;;;;;;;10.58;64.71;97741.91;5033696;28;20190;-70
2022/11/30 04:31:32;;;;;;;20.40;13.07;;;;;;;10.56;64.41;97746.47;5033634;28;20214;-69
2022/11/30 04:33:57;;;;;;;16.47;12.30;;;;;;;10.59;64.44;97740.13;5034868;28;20201;-70
2022/11/30 04:36:23;;;;;;;19.13;11.83;;;;;;;10.57;64.26;97740.25;5029088;28;20181;-70
2022/11/30 04:38:49;;;;;;;17.67;12.77;;;;;;;10.57;64.33;97739.41;5042241;28;20681;-69
2022/11/30 04:41:14;;;;;;;16.17;12.77;;;;;;;10.59;64.31;97742.72;5031836;28;20214;-69
2022/11/30 04:43:40;;;;;;;14.80;11.67;;;;;;;10.56;64.25;97743.84;5024868;28;20665;-69
2022/11/30 04:46:05;;;;;;;17.70;12.10;;;;;;;10.57;64.46;97742.88;5014429;28;20219;-69
2022/11/30 04:48:31;;;;;;;17.13;11.97;;;;;;;10.52;64.47;97736.41;5033881;28;20176;-69
2022/11/30 04:51:04;;;;;;;18.30;12.13;;;;;;;10.52;64.83;97736.41;5038442;28;20229;-69
2022/11/30 04:53:30;;;;;;;18.23;11.53;;;;;;;10.53;64.41;97733.63;5022479;28;20978;-70
2022/11/30 04:55:56;;;;;;;17.50;12.60;;;;;;;10.51;64.48;97737.38;5025855;28;20906;-69
2022/11/30 04:58:22;;;;;;;16.70;11.77;;;;;;;10.44;64.67;97730.03;5029499;28;20541;-69
2022/11/30 05:00:47;;;;;;;16.43;11.37;;;;;;;10.43;65.03;97736.25;5029280;28;20175;-69
2022/11/30 05:03:13;;;;;;;17.13;12.67;;;;;;;10.42;64.68;97734.59;5032496;28;20187;-69
2022/11/30 05:05:38;;;;;;;17.17;11.10;;;;;;;10.46;65.00;97735.13;5032167;28;20244;-68
2022/11/30 05:08:04;;;;;;;16.90;11.37;;;;;;;10.41;64.91;97737.38;5034853;28;20221;-69
2022/11/30 05:10:32;;;;;;;15.50;11.43;;;;;;;10.44;64.92;97747.56;5033782;28;20210;-69
2022/11/30 05:12:57;;;;;;;21.80;12.27;;;;;;;10.45;64.65;97746.63;5038357;28;20670;-69
2022/11/30 05:15:23;;;;;;;15.40;11.87;;;;;;;10.44;65.19;97752.81;5038077;28;20457;-71
2022/11/30 05:17:48;;;;;;;18.13;12.93;;;;;;;10.47;65.15;97749.09;5029961;28;20599;-70
2022/11/30 05:20:14;;;;;;;16.67;12.13;;;;;;;10.44;65.46;97747.56;5038537;28;20703;-69
2022/11/30 05:22:39;;;;;;;18.47;13.03;;;;;;;10.45;65.36;97754.47;5040607;28;20186;-70
2022/11/30 05:25:05;;;;;;;15.97;11.50;;;;;;;10.42;65.44;97758.19;5036581;28;20823;-70
2022/11/30 05:27:31;;;;;;;17.47;12.60;;;;;;;10.46;65.72;97761.34;5037824;28;20202;-70
2022/11/30 05:29:57;;;;;;;45.03;28.20;;;;;;;10.36;65.71;97760.50;5038880;28;20418;-70
2022/11/30 05:32:23;;;;;;;63.17;36.37;;;;;;;10.32;65.54;97761.75;5040567;28;20218;-71
2022/11/30 05:34:48;;;;;;;45.10;26.37;;;;;;;10.36;65.68;97763.09;5038320;28;20811;-68
2022/11/30 05:37:13;;;;;;;37.27;22.83;;;;;;;10.30;65.91;97762.72;5039241;28;20287;-68
2022/11/30 05:39:39;;;;;;;31.53;18.03;;;;;;;10.33;65.83;97763.41;5045753;28;20183;-69
2022/11/30 05:42:04;;;;;;;22.03;15.50;;;;;;;10.37;65.61;97765.63;5035759;28;20667;-70
2022/11/30 05:44:30;;;;;;;25.83;15.33;;;;;;;10.35;65.40;97758.84;5031232;28;20199;-68
2022/11/30 05:46:55;;;;;;;21.20;13.97;;;;;;;10.32;65.62;97764.38;5014140;28;20183;-69
2022/11/30 05:49:21;;;;;;;26.60;18.57;;;;;;;10.29;65.74;97768.91;5048505;28;20189;-69
2022/11/30 05:51:46;;;;;;;20.43;13.77;;;;;;;10.35;65.72;97767.53;5040961;28;20196;-68
2022/11/30 05:54:12;;;;;;;19.43;14.33;;;;;;;10.28;65.65;97772.50;5029194;28;20596;-68
2022/11/30 05:56:38;;;;;;;19.10;13.67;;;;;;;10.32;65.81;97767.00;5029285;28;20191;-67
2022/11/30 05:59:03;;;;;;;19.97;13.80;;;;;;;10.32;65.83;97769.59;5002913;28;20184;-68
2022/11/30 06:01:29;;;;;;;23.57;14.10;;;;;;;10.29;65.66;97766.28;5024914;28;20180;-68
2022/11/30 06:03:54;;;;;;;22.47;15.03;;;;;;;10.38;66.03;97763.84;4993913;28;20172;-69
2022/11/30 06:06:20;;;;;;;23.33;14.70;;;;;;;10.35;65.67;97774.56;5049029;28;20686;-70
2022/11/30 06:08:47;;;;;;;22.60;14.77;;;;;;;10.36;65.90;97770.97;5026583;28;20184;-70
2022/11/30 06:11:12;;;;;;;20.60;13.55;;;;;;;10.35;65.69;97767.53;5035026;28;20509;-71
2022/11/30 06:13:38;;;;;;;18.40;13.60;;;;;;;10.40;65.61;97764.53;5031972;28;20603;-71
2022/11/30 06:16:04;;;;;;;21.33;13.83;;;;;;;10.39;65.59;97765.50;5038599;28;20211;-69
2022/11/30 06:18:30;;;;;;;18.80;14.20;;;;;;;10.40;65.57;97764.53;5038516;28;20422;-70
2022/11/30 06:21:14;;;;;;;19.83;14.90;;;;;;;10.32;65.45;97764.38;5017416;28;20818;-69
2022/11/30 06:23:39;;;;;;;21.40;14.10;;;;;;;10.34;65.49;97759.78;5042576;28;20449;-69
2022/11/30 06:26:07;;;;;;;21.97;14.97;;;;;;;10.35;65.74;97762.28;5032141;28;20595;-70
2022/11/30 06:28:33;;;;;;;19.97;14.60;;;;;;;10.33;65.47;97755.53;5028678;28;20171;-69
2022/11/30 06:30:59;;;;;;;22.63;15.47;;;;;;;10.28;65.93;97763.78;5033488;28;20507;-69
2022/11/30 06:33:25;;;;;;;20.93;14.97;;;;;;;10.35;65.87;97761.44;5001304;28;20662;-69
2022/11/30 06:35:50;;;;;;;20.77;14.03;;;;;;;10.40;65.63;97760.09;5029443;28;20447;-72
2022/11/30 06:38:16;;;;;;;23.57;14.60;;;;;;;10.42;65.84;97767.84;5015036;28;20179;-69
2022/11/30 06:40:42;;;;;;;23.17;13.97;;;;;;;10.41;65.78;97766.19;5033442;28;20259;-71
2022/11/30 06:43:07;;;;;;;22.33;14.47;;;;;;;10.43;65.92;97759.03;5020386;28;20436;-69
2022/11/30 06:45:33;;;;;;;22.93;14.67;;;;;;;10.40;65.24;97761.91;5017920;28;20729;-71
2022/11/30 06:47:58;;;;;;;24.30;14.67;;;;;;;10.42;65.43;97765.22;5019563;28;20184;-69
2022/11/30 06:50:24;;;;;;;20.00;14.03;;;;;;;10.42;65.77;97767.84;5017355;28;20742;-69
2022/11/30 06:52:49;;;;;;;19.93;14.50;;;;;;;10.43;65.64;97772.13;5029632;28;20219;-70
2022/11/30 06:55:15;;;;;;;23.33;15.30;;;;;;;10.39;65.48;97774.19;5025373;28;20309;-69
2022/11/30 06:57:40;;;;;;;21.47;13.00;;;;;;;10.27;65.67;97767.41;5022544;28;20188;-70
2022/11/30 07:00:07;;;;;;;22.40;14.77;;;;;;;10.14;66.31;97776.31;5020892;28;20189;-70
2022/11/30 07:02:32;;;;;;;22.33;14.93;;;;;;;10.24;66.11;97771.09;5025451;28;20172;-70
2022/11/30 07:04:58;;;;;;;22.37;14.70;;;;;;;10.32;66.17;97775.66;5031898;28;20473;-71
2022/11/30 07:07:23;;;;;;;22.90;14.53;;;;;;;10.26;66.04;97773.59;5038890;28;21310;-70
2022/11/30 07:09:49;;;;;;;20.57;14.13;;;;;;;10.28;65.96;97772.50;5025333;28;20224;-71
2022/11/30 07:12:15;;;;;;;20.90;14.67;;;;;;;10.26;65.90;97771.81;5032251;28;20196;-70
2022/11/30 07:14:40;;;;;;;21.70;15.53;;;;;;;10.30;66.09;97773.19;5027572;28;20794;-70
2022/11/30 07:17:06;;;;;;;21.27;13.47;;;;;;;10.32;65.70;97777.47;5033288;28;20271;-70
2022/11/30 07:19:33;;;;;;;21.43;15.57;;;;;;;10.15;66.14;97780.59;5020773;28;20219;-70
2022/11/30 07:21:58;;;;;;;21.40;14.27;;;;;;;10.20;66.44;97782.84;5018024;28;20660;-71
2022/11/30 07:27:08;;;;;;;21.80;14.53;;;;;;;10.36;65.99;97786.69;5029074;28;20187;-71
2022/11/30 07:29:34;;;;;;;26.77;15.70;;;;;;;10.32;66.36;97786.16;5023639;28;20455;-70
2022/11/30 07:31:59;;;;;;;22.40;15.07;;;;;;;10.17;66.20;97788.34;5028461;28;20204;-70
2022/11/30 07:34:25;;;;;;;21.20;15.13;;;;;;;10.18;66.16;97787.38;5025028;28;20629;-72
2022/11/30 07:36:50;;;;;;;23.90;15.90;;;;;;;10.23;66.21;97794.81;5024637;28;20306;-70
2022/11/30 07:39:16;;;;;;;24.87;15.93;;;;;;;10.22;66.25;97791.38;5028350;28;20188;-70
2022/11/30 07:41:41;;;;;;;23.70;14.97;;;;;;;10.25;66.40;97791.09;5029640;28;20199;-70
2022/11/30 07:44:07;;;;;;;23.90;17.23;;;;;;;10.22;66.27;97788.75;5041571;28;20833;-69
2022/11/30 07:46:34;;;;;;;23.87;15.67;;;;;;;10.22;66.43;97787.94;5038718;28;20179;-70
2022/11/30 07:49:08;;;;;;;25.43;16.47;;;;;;;10.20;66.40;97788.06;5042016;28;20842;-70
2022/11/30 07:51:33;;;;;;;20.67;15.10;;;;;;;10.21;66.33;97789.69;5035856;28;20421;-70
2022/11/30 07:53:59;;;;;;;26.10;15.57;;;;;;;10.32;66.42;97786.16;5020411;28;20447;-71
2022/11/30 07:56:25;;;;;;;24.53;15.93;;;;;;;10.41;65.92;97789.78;5025127;28;20239;-71
2022/11/30 07:58:55;;;;;;;27.70;15.43;;;;;;;10.44;65.59;97795.56;5027537;28;20191;-70
2022/11/30 08:01:22;;;;;;;23.87;16.00;;;;;;;10.47;65.42;97802.31;5021279;28;20517;-70
2022/11/30 08:03:49;;;;;;;25.37;16.30;;;;;;;10.47;65.56;97796.25;5027446;28;20434;-71
2022/11/30 08:06:18;;;;;;;23.73;16.77;;;;;;;10.47;65.92;97807.56;5024556;28;20908;-70
2022/11/30 08:08:45;;;;;;;25.93;15.87;;;;;;;10.45;65.19;97809.50;5019780;28;20431;-70
2022/11/30 08:11:13;;;;;;;26.97;16.93;;;;;;;10.43;65.30;97809.63;5013043;28;20470;-71
2022/11/30 08:13:39;;;;;;;33.17;18.27;;;;;;;10.33;65.14;97810.56;5007571;28;20466;-69
2022/11/30 08:16:15;;;;;;;25.43;17.23;;;;;;;10.30;64.98;97809.88;5027232;28;20448;-69
2022/11/30 08:18:41;;;;;;;25.80;18.07;;;;;;;10.36;64.33;97807.66;5034101;28;20548;-70
2022/11/30 08:21:08;;;;;;;26.77;16.60;;;;;;;10.34;64.42;97818.28;5027346;28;20513;-71
2022/11/30 08:23:37;;;;;;;25.57;17.40;;;;;;;10.24;64.69;97813.03;5035209;28;20765;-69
2022/11/30 08:26:08;;;;;;;31.67;17.97;;;;;;;10.30;64.20;97820.34;5027010;28;20548;-71
2022/11/30 08:28:35;;;;;;;24.70;16.17;;;;;;;10.32;64.40;97822.81;5017867;28;20527;-69
2022/11/30 08:31:06;;;;;;;27.47;17.53;;;;;;;10.36;63.88;97824.22;5016045;28;21123;-69
2022/11/30 08:33:32;;;;;;;26.67;17.50;;;;;;;10.41;64.43;97823.84;5016698;28;20846;-71
2022/11/30 08:36:08;;;;;;;26.73;17.03;;;;;;;10.44;63.48;97829.63;5003699;28;20971;-71
2022/11/30 08:38:34;;;;;;;27.73;17.07;;;;;;;10.42;62.55;97825.50;5028965;28;20529;-70
2022/11/30 08:41:00;;;;;;;26.27;16.40;;;;;;;10.37;62.10;97828.50;5029373;28;20773;-71
2022/11/30 08:43:26;;;;;;;26.80;17.53;;;;;;;10.35;62.06;97822.56;5026975;28;20418;-70
2022/11/30 08:45:52;;;;;;;29.00;17.07;;;;;;;10.34;61.81;97823.53;5041516;28;20227;-70
2022/11/30 08:48:18;;;;;;;26.80;17.20;;;;;;;10.29;61.54;97828.31;5028991;28;20794;-70
2022/11/30 08:50:43;;;;;;;24.70;16.40;;;;;;;10.24;61.59;97830.53;5033483;28;20944;-69
2022/11/30 08:53:09;;;;;;;27.23;17.13;;;;;;;10.37;61.59;97827.66;5028735;28;20291;-68
2022/11/30 08:55:35;;;;;;;27.20;18.30;;;;;;;10.36;62.37;97828.63;5034404;28;20207;-69
2022/11/30 08:58:00;;;;;;;24.70;16.37;;;;;;;10.44;62.00;97836.69;5033006;28;20744;-68
2022/11/30 09:00:25;;;;;;;29.00;17.10;;;;;;;10.45;62.12;97836.53;5030338;28;20288;-68
2022/11/30 09:02:51;;;;;;;27.90;17.77;;;;;;;10.47;61.85;97831.13;5040554;28;20262;-68
2022/11/30 09:05:16;;;;;;;27.37;16.87;;;;;;;10.45;61.92;97838.34;5033902;28;20231;-69
2022/11/30 09:07:42;;;;;;;28.23;16.67;;;;;;;10.49;61.82;97837.09;5038392;28;20191;-68
2022/11/30 09:10:08;;;;;;;28.43;17.00;;;;;;;10.54;62.03;97834.03;5035616;28;20237;-70
2022/11/30 09:12:35;;;;;;;33.37;20.70;;;;;;;10.69;62.76;97835.31;5028318;28;20249;-70
2022/11/30 09:15:00;;;;;;;37.87;25.47;;;;;;;10.88;63.78;97841.53;5027068;28;20286;-68
2022/11/30 09:17:26;;;;;;;50.73;33.27;;;;;;;11.07;64.40;97840.69;5037657;28;20509;-69
2022/11/30 09:19:51;;;;;;;63.33;38.50;;;;;;;11.20;64.05;97830.72;5038766;28;20189;-69
2022/11/30 09:22:17;;;;;;;49.07;29.70;;;;;;;11.34;63.93;97833.88;5039447;28;20262;-69
2022/11/30 09:24:42;;;;;;;38.73;23.73;;;;;;;11.47;63.67;97837.00;5033717;28;20211;-69
2022/11/30 09:27:08;;;;;;;30.33;19.67;;;;;;;11.56;63.04;97831.88;5040836;28;20565;-70
2022/11/30 09:29:35;;;;;;;34.10;23.13;;;;;;;11.64;62.46;97839.84;5042323;28;20187;-70
2022/11/30 09:32:00;;;;;;;37.17;23.97;;;;;;;11.72;62.38;97836.50;5027290;28;20520;-70
2022/11/30 09:34:26;;;;;;;32.00;20.20;;;;;;;11.79;61.72;97841.03;5042843;28;20468;-71
2022/11/30 09:36:51;;;;;;;31.17;18.27;;;;;;;11.82;60.60;97840.75;5038007;28;20207;-69
2022/11/30 09:39:17;;;;;;;26.60;17.30;;;;;;;11.79;60.00;97841.03;5048392;28;20270;-71
2022/11/30 09:41:48;;;;;;;25.33;16.50;;;;;;;11.61;59.53;97845.38;5038907;28;20180;-70
2022/11/30 09:44:42;;;;;;;30.13;16.40;;;;;;;11.45;59.61;97846.00;5049380;28;20183;-71
2022/11/30 09:47:13;;;;;;;29.43;17.33;;;;;;;11.41;59.48;97842.81;5022849;28;20510;-71
2022/11/30 09:49:40;;;;;;;28.70;17.57;;;;;;;11.36;59.66;97850.28;5044680;28;20455;-68
2022/11/30 09:52:13;;;;;;;25.07;15.67;;;;;;;11.20;60.21;97845.63;5042947;28;20493;-69
2022/11/30 09:54:40;;;;;;;21.87;14.37;;;;;;;11.16;59.87;97842.47;5043700;28;20489;-69
2022/11/30 09:57:23;;;;;;;25.80;15.67;;;;;;;11.05;59.97;97853.09;5045286;28;20445;-69
2022/11/30 10:00:00;;;;;;;23.20;15.17;;;;;;;11.10;60.45;97834.31;5046085;28;20943;-69
2022/11/30 10:02:31;;;;;;;26.37;15.83;;;;;;;11.25;60.53;97847.81;5029941;28;20460;-69
2022/11/30 10:04:56;;;;;;;27.50;17.60;;;;;;;11.26;60.34;97838.97;5045609;28;20437;-70
2022/11/30 10:07:22;;;;;;;28.20;16.83;;;;;;;11.31;60.84;97842.03;5045586;28;20808;-70
2022/11/30 10:09:59;;;;;;;26.90;15.57;;;;;;;11.34;60.26;97831.25;5047978;28;20183;-69
2022/11/30 10:12:35;;;;;;;23.00;15.70;;;;;;;11.39;60.48;97834.25;5040528;28;20234;-69
2022/11/30 10:15:26;;;;;;;23.50;14.03;;;;;;;11.40;60.05;97833.28;5030578;28;20463;-68
2022/11/30 10:17:56;;;;;;;22.47;14.53;;;;;;;11.47;59.91;97821.25;5030576;28;20435;-71
2022/11/30 10:20:24;;;;;;;22.37;14.13;;;;;;;11.45;59.64;97832.88;5043729;28;20425;-69
2022/11/30 10:23:08;;;;;;;20.20;13.60;;;;;;;11.49;59.65;97829.00;5041289;28;20434;-69
2022/11/30 10:25:39;;;;;;;20.70;14.07;;;;;;;11.56;59.51;97824.81;5012092;28;20451;-68
2022/11/30 10:28:21;;;;;;;21.20;14.23;;;;;;;11.63;59.17;97825.06;5042461;28;20418;-69
2022/11/30 10:30:47;;;;;;;21.63;14.40;;;;;;;11.59;59.34;97828.97;5045210;28;20410;-68
2022/11/30 10:33:18;;;;;;;29.23;15.73;;;;;;;11.57;59.56;97823.03;5048408;28;20466;-70
2022/11/30 10:35:50;;;;;;;22.43;14.50;;;;;;;11.52;59.63;97823.47;5043577;28;20479;-68
2022/11/30 10:38:21;;;;;;;22.27;14.23;;;;;;;11.37;59.59;97829.16;5047122;28;20497;-69
2022/11/30 10:40:54;;;;;;;22.27;13.90;;;;;;;11.48;59.24;97830.78;5036420;28;20445;-69
2022/11/30 10:43:29;;;;;;;21.00;14.27;;;;;;;11.33;59.25;97819.91;5037269;28;20423;-68
2022/11/30 10:45:55;;;;;;;21.63;13.77;;;;;;;11.41;59.27;97821.84;5048222;28;20453;-68
2022/11/30 10:48:22;;;;;;;20.60;13.67;;;;;;;11.29;58.42;97815.91;5042206;28;20454;-68
2022/11/30 10:50:48;;;;;;;25.93;15.57;;;;;;;11.15;58.17;97826.88;5030735;28;20207;-70
2022/11/30 10:53:13;;;;;;;17.77;12.80;;;;;;;11.13;58.55;97820.94;5037247;28;21130;-68
2022/11/30 10:55:43;;;;;;;24.93;16.97;;;;;;;11.05;58.93;97822.44;5042125;28;20209;-69
2022/11/30 10:58:27;;;;;;;23.47;16.20;;;;;;;11.01;59.17;97815.00;4991340;28;20187;-71
2022/11/30 11:01:03;;;;;;;25.53;15.47;;;;;;;11.17;59.20;97819.66;5037135;28;20784;-71
2022/11/30 11:03:29;;;;;;;23.17;14.70;;;;;;;11.22;59.19;97817.47;5041345;28;20417;-71
2022/11/30 11:06:01;;;;;;;24.50;14.10;;;;;;;11.17;58.76;97819.66;5030466;28;20454;-70
2022/11/30 11:08:27;;;;;;;20.83;13.67;;;;;;;11.12;58.21;97817.47;5035594;28;20417;-71
2022/11/30 11:10:53;;;;;;;19.90;13.43;;;;;;;11.07;58.45;97819.69;5029245;28;20474;-69
2022/11/30 11:13:39;;;;;;;17.17;11.90;;;;;;;11.01;57.71;97817.63;5037686;28;20215;-71
2022/11/30 11:16:10;;;;;;;20.23;14.50;;;;;;;11.05;58.50;97816.38;5041795;28;20216;-71
2022/11/30 11:18:51;;;;;;;22.10;14.20;;;;;;;11.07;59.65;97817.06;5034228;28;20524;-70
2022/11/30 11:21:18;;;;;;;17.00;12.30;;;;;;;11.11;59.98;97815.81;5038763;28;20517;-70